Map

Track Data

SID SEASON NUMBER BASIN SUBBASIN NAME ISO_TIME NATURE LAT LON WMO_WIND WMO_PRES WMO_AGENCY TRACK_TYPE DIST2LAND LANDFALL IFLAG USA_AGENCY USA_ATCF_ID USA_LAT USA_LON USA_RECORD USA_STATUS USA_WIND USA_PRES USA_SSHS USA_R34_NE USA_R34_SE USA_R34_SW USA_R34_NW USA_R50_NE USA_R50_SE USA_R50_SW USA_R50_NW USA_R64_NE USA_R64_SE USA_R64_SW USA_R64_NW USA_POCI USA_ROCI USA_RMW USA_EYE TOKYO_LAT TOKYO_LON TOKYO_GRADE TOKYO_WIND TOKYO_PRES TOKYO_R50_DIR TOKYO_R50_LONG TOKYO_R50_SHORT TOKYO_R30_DIR TOKYO_R30_LONG TOKYO_R30_SHORT TOKYO_LAND CMA_LAT CMA_LON CMA_CAT CMA_WIND CMA_PRES HKO_LAT HKO_LON HKO_CAT HKO_WIND HKO_PRES NEWDELHI_LAT NEWDELHI_LON NEWDELHI_GRADE NEWDELHI_WIND NEWDELHI_PRES NEWDELHI_CI NEWDELHI_DP NEWDELHI_POCI REUNION_LAT REUNION_LON REUNION_TYPE REUNION_WIND REUNION_PRES REUNION_TNUM REUNION_CI REUNION_RMW REUNION_R34_NE REUNION_R34_SE REUNION_R34_SW REUNION_R34_NW REUNION_R50_NE REUNION_R50_SE REUNION_R50_SW REUNION_R50_NW REUNION_R64_NE REUNION_R64_SE REUNION_R64_SW REUNION_R64_NW BOM_LAT BOM_LON BOM_TYPE BOM_WIND BOM_PRES BOM_TNUM BOM_CI BOM_RMW BOM_R34_NE BOM_R34_SE BOM_R34_SW BOM_R34_NW BOM_R50_NE BOM_R50_SE BOM_R50_SW BOM_R50_NW BOM_R64_NE BOM_R64_SE BOM_R64_SW BOM_R64_NW BOM_ROCI BOM_POCI BOM_EYE BOM_POS_METHOD BOM_PRES_METHOD NADI_LAT NADI_LON NADI_CAT NADI_WIND NADI_PRES WELLINGTON_LAT WELLINGTON_LON WELLINGTON_WIND WELLINGTON_PRES DS824_LAT DS824_LON DS824_STAGE DS824_WIND DS824_PRES TD9636_LAT TD9636_LON TD9636_STAGE TD9636_WIND TD9636_PRES TD9635_LAT TD9635_LON TD9635_WIND TD9635_PRES TD9635_ROCI NEUMANN_LAT NEUMANN_LON NEUMANN_CLASS NEUMANN_WIND NEUMANN_PRES MLC_LAT MLC_LON MLC_CLASS MLC_WIND MLC_PRES USA_GUST BOM_GUST BOM_GUST_PER REUNION_GUST REUNION_GUST_PER USA_SEAHGT USA_SEARAD_NE USA_SEARAD_SE USA_SEARAD_SW USA_SEARAD_NW STORM_SPEED STORM_DIR
1876200N16293 1876 10 NA CS NOT_NAMED 1876-07-17 12:00:00 TS 15.5000 -67.0000 main 268 257 _____________O -1 15.5000 -67.0000 TS 45 13 279
1876200N16293 1876 10 NA CS NOT_NAMED 1876-07-17 15:00:00 TS 15.6005 -67.6624 main 262 260 _____________P -1 15.6005 -67.6624 TS 45 13 279
1876200N16293 1876 10 NA CS NOT_NAMED 1876-07-17 18:00:00 TS 15.7000 -68.3000 main 272 268 _____________O -1 15.7000 -68.3000 TS 45 12 279
1876200N16293 1876 10 NA CS NOT_NAMED 1876-07-17 21:00:00 TS 15.7997 -68.9001 main 268 260 _____________P -1 15.7997 -68.9001 TS 45 12 280
1876200N16293 1876 10 NA CS NOT_NAMED 1876-07-18 00:00:00 TS 15.9000 -69.5000 main 267 226 _____________O -1 15.9000 -69.5000 TS 45 12 279
1876200N16293 1876 10 NA CS NOT_NAMED 1876-07-18 03:00:00 TS 15.9999 -70.1500 main 219 179 _____________P -1 15.9999 -70.1500 TS 47 13 279
1876200N16293 1876 10 NA CS NOT_NAMED 1876-07-18 06:00:00 TS 16.1000 -70.8000 main 179 156 _____________O -1 16.1000 -70.8000 TS 50 12 279
1876200N16293 1876 10 NA CS NOT_NAMED 1876-07-18 09:00:00 TS 16.1997 -71.4001 main 156 148 _____________P -1 16.1997 -71.4001 TS 52 12 280
1876200N16293 1876 10 NA CS NOT_NAMED 1876-07-18 12:00:00 TS 16.3000 -72.0000 main 158 158 _____________O -1 16.3000 -72.0000 TS 55 12 279
1876200N16293 1876 10 NA CS NOT_NAMED 1876-07-18 15:00:00 TS 16.3999 -72.6500 main 190 176 _____________P -1 16.3999 -72.6500 TS 57 13 279
1876200N16293 1876 10 NA CS NOT_NAMED 1876-07-18 18:00:00 TS 16.5000 -73.3000 main 176 156 _____________O -1 16.5000 -73.3000 TS 60 12 279
1876200N16293 1876 10 NA CS NOT_NAMED 1876-07-18 21:00:00 TS 16.5997 -73.9001 main 156 148 _____________P -1 16.5997 -73.9001 TS 60 12 280
1876200N16293 1876 10 NA CS NOT_NAMED 1876-07-19 00:00:00 TS 16.7000 -74.5000 main 158 158 _____________O -1 16.7000 -74.5000 TS 60 12 280
1876200N16293 1876 10 NA CS NOT_NAMED 1876-07-19 03:00:00 TS 16.8074 -75.1500 main 169 119 _____________P -1 16.8074 -75.1500 TS 65 13 279
1876200N16293 1876 10 NA CS NOT_NAMED 1876-07-19 06:00:00 TS 16.9000 -75.8000 main 119 111 _____________O -1 16.9000 -75.8000 HU 70 12 277
1876200N16293 1876 10 NA CS NOT_NAMED 1876-07-19 09:00:00 TS 16.9497 -76.4002 main 111 81 _____________P -1 16.9497 -76.4002 HU 72 12 275
1876200N16293 1876 10 NA CS NOT_NAMED 1876-07-19 12:00:00 TS 17.0000 -77.0000 main 81 70 _____________O -1 17.0000 -77.0000 HU 75 12 277
1876200N16293 1876 10 NA CS NOT_NAMED 1876-07-19 15:00:00 TS 17.0999 -77.6424 main 79 79 _____________P -1 17.0999 -77.6424 HU 75 13 279
1876200N16293 1876 10 NA CS NOT_NAMED 1876-07-19 18:00:00 TS 17.2000 -78.3000 main 100 100 _____________O -1 17.2000 -78.3000 HU 75 13 277
1876200N16293 1876 10 NA CS NOT_NAMED 1876-07-19 21:00:00 TS 17.2498 -78.9502 main 128 119 _____________P -1 17.2498 -78.9502 HU 75 12 275
1876200N16293 1876 10 NA CS NOT_NAMED 1876-07-20 00:00:00 TS 17.3000 -79.6000 main 162 162 _____________O -1 17.3000 -79.6000 HU 75 13 277
1876200N16293 1876 10 NA CS NOT_NAMED 1876-07-20 03:00:00 TS 17.3999 -80.2574 main 220 220 _____________P -1 17.3999 -80.2574 HU 75 13 279
1876200N16293 1876 10 NA CS NOT_NAMED 1876-07-20 06:00:00 TS 17.5000 -80.9000 main 275 275 _____________O -1 17.5000 -80.9000 HU 75 12 277
1876200N16293 1876 10 NA CS NOT_NAMED 1876-07-20 09:00:00 TS 17.5497 -81.5002 main 318 292 _____________P -1 17.5497 -81.5002 HU 75 11 275
1876200N16293 1876 10 NA CS NOT_NAMED 1876-07-20 12:00:00 TS 17.6000 -82.1000 main 292 272 _____________O -1 17.6000 -82.1000 HU 75 12 277
1876200N16293 1876 10 NA CS NOT_NAMED 1876-07-20 15:00:00 TS 17.6999 -82.7424 main 272 243 _____________P -1 17.6999 -82.7424 HU 75 13 279
1876200N16293 1876 10 NA CS NOT_NAMED 1876-07-20 18:00:00 TS 17.8000 -83.4000 main 243 225 _____________O -1 17.8000 -83.4000 HU 75 13 277
1876200N16293 1876 10 NA CS NOT_NAMED 1876-07-20 21:00:00 TS 17.8498 -84.0502 main 222 222 _____________P -1 17.8498 -84.0502 HU 75 12 275
1876200N16293 1876 10 NA CS NOT_NAMED 1876-07-21 00:00:00 TS 17.9000 -84.7000 main 223 223 _____________O -1 17.9000 -84.7000 HU 75 12 277
1876200N16293 1876 10 NA CS NOT_NAMED 1876-07-21 03:00:00 TS 17.9998 -85.3499 main 235 187 _____________P -1 17.9998 -85.3499 HU 75 13 279
1876200N16293 1876 10 NA CS NOT_NAMED 1876-07-21 06:00:00 TS 18.1000 -86.0000 main 187 127 _____________O -1 18.1000 -86.0000 HU 75 12 277
1876200N16293 1876 10 NA CS NOT_NAMED 1876-07-21 09:00:00 TS 18.1498 -86.6502 main 116 52 _____________P -1 18.1498 -86.6502 HU 75 12 275
1876200N16293 1876 10 NA CS NOT_NAMED 1876-07-21 12:00:00 TS 18.2000 -87.3000 main 52 0 _____________O -1 18.2000 -87.3000 HU 75 12 277
1876200N16293 1876 10 NA CS NOT_NAMED 1876-07-21 15:00:00 TS 18.2998 -87.9499 main 10 0 _____________P -1 18.2998 -87.9499 HU 70 13 279
1876200N16293 1876 10 NA NA NOT_NAMED 1876-07-21 18:00:00 TS 18.4000 -88.6000 main 0 0 _____________O -1 18.4000 -88.6000 HU 65 12 277
1876200N16293 1876 10 NA NA NOT_NAMED 1876-07-21 21:00:00 TS 18.4498 -89.2502 main 0 0 _____________P -1 18.4498 -89.2502 HU 60 12 275
1876200N16293 1876 10 NA NA NOT_NAMED 1876-07-22 00:00:00 TS 18.5000 -89.9000 main 0 0 _____________O -1 18.5000 -89.9000 TS 55 12 277
1876200N16293 1876 10 NA NA NOT_NAMED 1876-07-22 03:00:00 TS 18.5999 -90.5574 main 0 0 _____________P -1 18.5999 -90.5574 TS 55 12 279
1876200N16293 1876 10 NA GM NOT_NAMED 1876-07-22 06:00:00 TS 18.7000 -91.2000 main 0 0 _____________O -1 18.7000 -91.2000 TS 55 12 277
1876200N16293 1876 10 NA GM NOT_NAMED 1876-07-22 09:00:00 TS 18.7497 -91.8002 main 15 15 _____________P -1 18.7497 -91.8002 TS 60 11 275
1876200N16293 1876 10 NA GM NOT_NAMED 1876-07-22 12:00:00 TS 18.8000 -92.4000 main 22 22 _____________O -1 18.8000 -92.4000 HU 65 12 277
1876200N16293 1876 10 NA GM NOT_NAMED 1876-07-22 15:00:00 TS 18.8999 -93.0424 main 46 46 _____________P -1 18.8999 -93.0424 HU 67 12 279
1876200N16293 1876 10 NA GM NOT_NAMED 1876-07-22 18:00:00 TS 19.0000 -93.7000 main 78 78 _____________O -1 19.0000 -93.7000 HU 70 12 277
1876200N16293 1876 10 NA GM NOT_NAMED 1876-07-22 21:00:00 TS 19.0498 -94.3502 main 77 49 _____________P -1 19.0498 -94.3502 HU 72 12 275
1876200N16293 1876 10 NA GM NOT_NAMED 1876-07-23 00:00:00 TS 19.1000 -95.0000 main 49 44 _____________O -1 19.1000 -95.0000 HU 75 12 277
1876200N16293 1876 10 NA GM NOT_NAMED 1876-07-23 03:00:00 TS 19.1998 -95.6499 main 45 0 _____________P -1 19.1998 -95.6499 HU 62 12 279
1876200N16293 1876 10 NA NA NOT_NAMED 1876-07-23 06:00:00 TS 19.3000 -96.3000 main 0 0 _____________O -1 19.3000 -96.3000 TS 50 12 277
1876200N16293 1876 10 NA NA NOT_NAMED 1876-07-23 09:00:00 TS 19.3573 -96.9501 main 0 0 _____________P -1 19.3573 -96.9501 TS 40 12 275
1876200N16293 1876 10 NA NA NOT_NAMED 1876-07-23 12:00:00 TS 19.4000 -97.6000 main 0 0 _____________O -1 19.4000 -97.6000 TD 30 12 274
1876200N16293 1876 10 NA NA NOT_NAMED 1876-07-23 15:00:00 TS 19.4480 -98.2499 main 0 0 _____________P -1 19.4480 -98.2499 TD 25 12 275
1876200N16293 1876 10 NA NA NOT_NAMED 1876-07-23 18:00:00 TS 19.5000 -98.9000 main 0 _____________O -1 19.5000 -98.9000 TD 20 12 275

About IBTrACS Database

This database is a web-friendly format of International Best Track Archive for Climate Stewardship (IBTrACS), a global best track data archive curated by NOAA dating back to 1842.

Updated: 2021-10-21